sensor_id;sensor_type;location;lat;lon;timestamp;P1;durP1;ratioP1;P2;durP2;ratioP2
1054;SDS011;516;51.482;7.120;2023-04-03T00:00:53;13.10;;;11.77;;
1054;SDS011;516;51.482;7.120;2023-04-03T00:03:19;14.07;;;11.20;;
1054;SDS011;516;51.482;7.120;2023-04-03T00:09:07;13.83;;;11.80;;
1054;SDS011;516;51.482;7.120;2023-04-03T00:14:54;13.73;;;12.23;;
1054;SDS011;516;51.482;7.120;2023-04-03T00:20:42;13.63;;;12.03;;
1054;SDS011;516;51.482;7.120;2023-04-03T00:26:30;14.47;;;11.40;;
1054;SDS011;516;51.482;7.120;2023-04-03T00:32:17;20.00;;;11.33;;
1054;SDS011;516;51.482;7.120;2023-04-03T00:38:06;12.10;;;10.90;;
1054;SDS011;516;51.482;7.120;2023-04-03T00:43:54;12.13;;;10.90;;
1054;SDS011;516;51.482;7.120;2023-04-03T00:49:41;16.73;;;12.37;;
1054;SDS011;516;51.482;7.120;2023-04-03T00:55:30;15.17;;;11.50;;
1054;SDS011;516;51.482;7.120;2023-04-03T01:11:11;15.17;;;12.03;;
1054;SDS011;516;51.482;7.120;2023-04-03T01:16:59;13.60;;;11.00;;
1054;SDS011;516;51.482;7.120;2023-04-03T01:28:43;15.20;;;12.50;;
1054;SDS011;516;51.482;7.120;2023-04-03T01:34:31;15.47;;;11.23;;
1054;SDS011;516;51.482;7.120;2023-04-03T01:40:19;14.97;;;11.00;;
1054;SDS011;516;51.482;7.120;2023-04-03T01:46:07;12.60;;;10.70;;
1054;SDS011;516;51.482;7.120;2023-04-03T01:51:55;18.87;;;11.47;;
1054;SDS011;516;51.482;7.120;2023-04-03T01:57:42;12.50;;;9.97;;
1054;SDS011;516;51.482;7.120;2023-04-03T02:03:19;16.17;;;10.50;;
1054;SDS011;516;51.482;7.120;2023-04-03T02:09:07;12.97;;;10.13;;
1054;SDS011;516;51.482;7.120;2023-04-03T02:14:55;11.17;;;9.93;;
1054;SDS011;516;51.482;7.120;2023-04-03T02:20:42;13.13;;;9.80;;
1054;SDS011;516;51.482;7.120;2023-04-03T02:26:30;11.87;;;10.53;;
1054;SDS011;516;51.482;7.120;2023-04-03T02:32:18;12.17;;;10.20;;
1054;SDS011;516;51.482;7.120;2023-04-03T02:38:06;12.33;;;10.17;;
1054;SDS011;516;51.482;7.120;2023-04-03T02:43:54;12.30;;;9.97;;
1054;SDS011;516;51.482;7.120;2023-04-03T02:49:41;8.47;;;7.67;;
1054;SDS011;516;51.482;7.120;2023-04-03T02:55:32;9.43;;;7.80;;
1054;SDS011;516;51.482;7.120;2023-04-03T03:11:13;7.07;;;5.97;;
1054;SDS011;516;51.482;7.120;2023-04-03T03:17:01;7.10;;;5.93;;
1054;SDS011;516;51.482;7.120;2023-04-03T03:22:49;10.07;;;5.60;;
1054;SDS011;516;51.482;7.120;2023-04-03T03:28:37;6.70;;;5.83;;
1054;SDS011;516;51.482;7.120;2023-04-03T03:34:26;6.90;;;5.30;;
1054;SDS011;516;51.482;7.120;2023-04-03T03:40:13;10.63;;;5.67;;
1054;SDS011;516;51.482;7.120;2023-04-03T03:46:01;10.43;;;4.87;;
1054;SDS011;516;51.482;7.120;2023-04-03T03:51:49;10.90;;;4.87;;
1054;SDS011;516;51.482;7.120;2023-04-03T03:57:37;7.20;;;5.30;;
1054;SDS011;516;51.482;7.120;2023-04-03T04:03:20;8.00;;;5.37;;
1054;SDS011;516;51.482;7.120;2023-04-03T04:09:08;7.23;;;4.80;;
1054;SDS011;516;51.482;7.120;2023-04-03T04:14:57;7.40;;;5.70;;
1054;SDS011;516;51.482;7.120;2023-04-03T04:20:45;7.90;;;5.77;;
1054;SDS011;516;51.482;7.120;2023-04-03T04:26:33;11.30;;;5.37;;
1054;SDS011;516;51.482;7.120;2023-04-03T04:32:20;10.60;;;5.00;;
1054;SDS011;516;51.482;7.120;2023-04-03T04:38:08;5.87;;;5.37;;
1054;SDS011;516;51.482;7.120;2023-04-03T04:43:55;5.90;;;5.10;;
1054;SDS011;516;51.482;7.120;2023-04-03T04:49:43;16.20;;;5.83;;
1054;SDS011;516;51.482;7.120;2023-04-03T04:55:31;6.53;;;5.47;;
1054;SDS011;516;51.482;7.120;2023-04-03T05:11:09;22.70;;;6.20;;
1054;SDS011;516;51.482;7.120;2023-04-03T05:16:56;10.73;;;5.70;;
1054;SDS011;516;51.482;7.120;2023-04-03T05:22:44;6.60;;;6.00;;
1054;SDS011;516;51.482;7.120;2023-04-03T05:28:32;7.40;;;6.50;;
1054;SDS011;516;51.482;7.120;2023-04-03T05:34:21;13.73;;;6.83;;
1054;SDS011;516;51.482;7.120;2023-04-03T05:40:09;8.87;;;7.87;;
1054;SDS011;516;51.482;7.120;2023-04-03T05:45:38;9.33;;;6.40;;
1054;SDS011;516;51.482;7.120;2023-04-03T05:51:28;9.90;;;6.23;;
1054;SDS011;516;51.482;7.120;2023-04-03T05:57:18;8.43;;;6.70;;
1054;SDS011;516;51.482;7.120;2023-04-03T06:06:27;7.40;;;6.73;;
1054;SDS011;516;51.482;7.120;2023-04-03T06:13:06;9.63;;;7.80;;
1054;SDS011;516;51.482;7.120;2023-04-03T06:18:55;15.17;;;8.10;;
1054;SDS011;516;51.482;7.120;2023-04-03T06:24:43;15.80;;;8.20;;
1054;SDS011;516;51.482;7.120;2023-04-03T06:30:30;13.53;;;8.57;;
1054;SDS011;516;51.482;7.120;2023-04-03T06:36:19;9.70;;;8.80;;
1054;SDS011;516;51.482;7.120;2023-04-03T06:42:08;10.17;;;9.27;;
1054;SDS011;516;51.482;7.120;2023-04-03T06:47:56;11.50;;;9.37;;
1054;SDS011;516;51.482;7.120;2023-04-03T06:53:44;10.93;;;9.93;;
1054;SDS011;516;51.482;7.120;2023-04-03T06:59:32;9.43;;;8.67;;
1054;SDS011;516;51.482;7.120;2023-04-03T07:08:43;11.23;;;10.47;;
1054;SDS011;516;51.482;7.120;2023-04-03T07:14:31;12.93;;;11.53;;
1054;SDS011;516;51.482;7.120;2023-04-03T07:20:19;10.30;;;9.50;;
1054;SDS011;516;51.482;7.120;2023-04-03T07:26:07;11.40;;;10.63;;
1054;SDS011;516;51.482;7.120;2023-04-03T07:31:55;12.30;;;11.07;;
1054;SDS011;516;51.482;7.120;2023-04-03T07:37:43;10.80;;;10.10;;
1054;SDS011;516;51.482;7.120;2023-04-03T07:43:31;11.47;;;10.77;;
1054;SDS011;516;51.482;7.120;2023-04-03T07:49:19;11.10;;;10.33;;
1054;SDS011;516;51.482;7.120;2023-04-03T07:55:09;12.13;;;10.80;;
1054;SDS011;516;51.482;7.120;2023-04-03T08:00:57;11.43;;;10.93;;
1054;SDS011;516;51.482;7.120;2023-04-03T08:06:56;12.07;;;11.07;;
1054;SDS011;516;51.482;7.120;2023-04-03T08:12:45;11.53;;;10.93;;
1054;SDS011;516;51.482;7.120;2023-04-03T08:18:33;10.80;;;10.30;;
1054;SDS011;516;51.482;7.120;2023-04-03T08:24:20;10.93;;;10.23;;
1054;SDS011;516;51.482;7.120;2023-04-03T08:30:07;11.37;;;10.77;;
1054;SDS011;516;51.482;7.120;2023-04-03T08:35:55;10.77;;;10.17;;
1054;SDS011;516;51.482;7.120;2023-04-03T08:41:43;12.37;;;11.37;;
1054;SDS011;516;51.482;7.120;2023-04-03T08:47:38;11.57;;;10.80;;
1054;SDS011;516;51.482;7.120;2023-04-03T08:53:31;11.47;;;10.40;;
1054;SDS011;516;51.482;7.120;2023-04-03T08:59:24;11.03;;;10.23;;
1054;SDS011;516;51.482;7.120;2023-04-03T09:15:27;10.83;;;10.33;;
1054;SDS011;516;51.482;7.120;2023-04-03T09:21:31;12.00;;;11.30;;
1054;SDS011;516;51.482;7.120;2023-04-03T09:27:42;12.70;;;12.07;;
1054;SDS011;516;51.482;7.120;2023-04-03T09:33:30;12.30;;;11.60;;
1054;SDS011;516;51.482;7.120;2023-04-03T09:39:21;12.50;;;12.00;;
1054;SDS011;516;51.482;7.120;2023-04-03T09:45:21;11.90;;;11.20;;
1054;SDS011;516;51.482;7.120;2023-04-03T09:51:47;11.07;;;10.47;;
1054;SDS011;516;51.482;7.120;2023-04-03T09:57:36;10.73;;;10.23;;
1054;SDS011;516;51.482;7.120;2023-04-03T10:03:25;10.63;;;10.03;;
1054;SDS011;516;51.482;7.120;2023-04-03T10:09:26;11.30;;;10.70;;
1054;SDS011;516;51.482;7.120;2023-04-03T10:24:54;11.10;;;10.53;;
1054;SDS011;516;51.482;7.120;2023-04-03T10:31:14;11.50;;;10.70;;
1054;SDS011;516;51.482;7.120;2023-04-03T10:57:37;11.70;;;11.10;;
1054;SDS011;516;51.482;7.120;2023-04-03T11:03:29;11.70;;;11.20;;
1054;SDS011;516;51.482;7.120;2023-04-03T11:27:47;10.93;;;10.43;;
1054;SDS011;516;51.482;7.120;2023-04-03T11:34:20;11.80;;;11.30;;
1054;SDS011;516;51.482;7.120;2023-04-03T11:40:47;12.40;;;11.70;;
1054;SDS011;516;51.482;7.120;2023-04-03T11:58:31;13.37;;;12.57;;
1054;SDS011;516;51.482;7.120;2023-04-03T12:04:22;11.97;;;11.37;;
1054;SDS011;516;51.482;7.120;2023-04-03T12:10:15;12.00;;;11.40;;
1054;SDS011;516;51.482;7.120;2023-04-03T12:16:05;13.80;;;12.90;;
1054;SDS011;516;51.482;7.120;2023-04-03T12:27:44;12.63;;;11.87;;
1054;SDS011;516;51.482;7.120;2023-04-03T12:40:16;12.30;;;11.70;;
1054;SDS011;516;51.482;7.120;2023-04-03T12:51:55;11.80;;;11.20;;
1054;SDS011;516;51.482;7.120;2023-04-03T12:57:43;13.57;;;12.70;;
1054;SDS011;516;51.482;7.120;2023-04-03T13:03:31;11.80;;;11.30;;
1054;SDS011;516;51.482;7.120;2023-04-03T13:12:48;12.47;;;11.97;;
1054;SDS011;516;51.482;7.120;2023-04-03T13:19:15;13.27;;;12.47;;
1054;SDS011;516;51.482;7.120;2023-04-03T13:25:05;12.80;;;12.20;;
1054;SDS011;516;51.482;7.120;2023-04-03T13:36:17;12.40;;;11.80;;
1054;SDS011;516;51.482;7.120;2023-04-03T13:42:28;12.90;;;12.20;;
1054;SDS011;516;51.482;7.120;2023-04-03T13:48:18;12.40;;;11.90;;
1054;SDS011;516;51.482;7.120;2023-04-03T13:54:29;13.80;;;13.10;;
1054;SDS011;516;51.482;7.120;2023-04-03T14:00:48;13.37;;;12.67;;
1054;SDS011;516;51.482;7.120;2023-04-03T14:07:13;12.37;;;11.73;;
1054;SDS011;516;51.482;7.120;2023-04-03T14:13:02;12.63;;;11.90;;
1054;SDS011;516;51.482;7.120;2023-04-03T14:18:50;12.37;;;11.77;;
1054;SDS011;516;51.482;7.120;2023-04-03T14:24:39;13.27;;;12.40;;
1054;SDS011;516;51.482;7.120;2023-04-03T14:30:28;13.17;;;12.37;;
1054;SDS011;516;51.482;7.120;2023-04-03T14:36:21;14.30;;;13.10;;
1054;SDS011;516;51.482;7.120;2023-04-03T14:42:13;15.27;;;14.13;;
1054;SDS011;516;51.482;7.120;2023-04-03T14:48:03;12.50;;;11.90;;
1054;SDS011;516;51.482;7.120;2023-04-03T14:53:53;14.37;;;13.20;;
1054;SDS011;516;51.482;7.120;2023-04-03T14:59:43;14.97;;;14.10;;
1054;SDS011;516;51.482;7.120;2023-04-03T15:05:32;12.23;;;11.70;;
1054;SDS011;516;51.482;7.120;2023-04-03T15:11:21;13.67;;;12.70;;
1054;SDS011;516;51.482;7.120;2023-04-03T15:17:14;11.97;;;11.37;;
1054;SDS011;516;51.482;7.120;2023-04-03T15:23:03;12.67;;;12.10;;
1054;SDS011;516;51.482;7.120;2023-04-03T15:28:51;12.67;;;11.97;;
1054;SDS011;516;51.482;7.120;2023-04-03T15:34:39;12.33;;;11.70;;
1054;SDS011;516;51.482;7.120;2023-04-03T15:40:27;12.90;;;12.30;;
1054;SDS011;516;51.482;7.120;2023-04-03T15:46:15;12.10;;;11.30;;
1054;SDS011;516;51.482;7.120;2023-04-03T15:52:02;12.40;;;11.80;;
1054;SDS011;516;51.482;7.120;2023-04-03T15:57:50;13.27;;;12.53;;
1054;SDS011;516;51.482;7.120;2023-04-03T16:03:40;13.97;;;13.00;;
1054;SDS011;516;51.482;7.120;2023-04-03T16:12:54;19.67;;;14.17;;
1054;SDS011;516;51.482;7.120;2023-04-03T16:18:42;15.73;;;14.07;;
1054;SDS011;516;51.482;7.120;2023-04-03T16:24:29;12.20;;;11.40;;
1054;SDS011;516;51.482;7.120;2023-04-03T16:30:17;12.37;;;11.53;;
1054;SDS011;516;51.482;7.120;2023-04-03T16:36:05;13.07;;;12.20;;
1054;SDS011;516;51.482;7.120;2023-04-03T16:41:53;13.43;;;12.70;;
1054;SDS011;516;51.482;7.120;2023-04-03T16:47:41;12.70;;;11.70;;
1054;SDS011;516;51.482;7.120;2023-04-03T16:53:29;12.83;;;12.23;;
1054;SDS011;516;51.482;7.120;2023-04-03T16:59:16;13.13;;;12.33;;
1054;SDS011;516;51.482;7.120;2023-04-03T17:05:04;13.67;;;12.83;;
1054;SDS011;516;51.482;7.120;2023-04-03T17:10:44;14.20;;;13.50;;
1054;SDS011;516;51.482;7.120;2023-04-03T17:16:33;14.30;;;13.07;;
1054;SDS011;516;51.482;7.120;2023-04-03T17:22:22;14.47;;;13.50;;
1054;SDS011;516;51.482;7.120;2023-04-03T17:28:10;12.60;;;11.70;;
1054;SDS011;516;51.482;7.120;2023-04-03T17:33:58;13.90;;;12.90;;
1054;SDS011;516;51.482;7.120;2023-04-03T17:39:48;13.47;;;12.67;;
1054;SDS011;516;51.482;7.120;2023-04-03T17:45:36;14.20;;;13.40;;
1054;SDS011;516;51.482;7.120;2023-04-03T17:51:24;13.47;;;12.60;;
1054;SDS011;516;51.482;7.120;2023-04-03T17:57:12;13.30;;;12.50;;
1054;SDS011;516;51.482;7.120;2023-04-03T18:03:00;12.87;;;12.17;;
1054;SDS011;516;51.482;7.120;2023-04-03T18:19:12;12.67;;;11.97;;
1054;SDS011;516;51.482;7.120;2023-04-03T18:24:59;12.80;;;11.87;;
1054;SDS011;516;51.482;7.120;2023-04-03T18:30:47;12.40;;;11.80;;
1054;SDS011;516;51.482;7.120;2023-04-03T18:36:35;12.57;;;11.47;;
1054;SDS011;516;51.482;7.120;2023-04-03T18:42:23;18.67;;;13.30;;
1054;SDS011;516;51.482;7.120;2023-04-03T18:48:11;13.83;;;12.97;;
1054;SDS011;516;51.482;7.120;2023-04-03T18:53:59;12.80;;;12.10;;
1054;SDS011;516;51.482;7.120;2023-04-03T18:59:46;13.20;;;12.60;;
1054;SDS011;516;51.482;7.120;2023-04-03T19:05:35;14.27;;;13.13;;
1054;SDS011;516;51.482;7.120;2023-04-03T19:08:19;14.30;;;13.50;;
1054;SDS011;516;51.482;7.120;2023-04-03T19:10:45;14.37;;;13.33;;
1054;SDS011;516;51.482;7.120;2023-04-03T19:16:32;14.20;;;13.40;;
1054;SDS011;516;51.482;7.120;2023-04-03T19:22:20;15.10;;;13.90;;
1054;SDS011;516;51.482;7.120;2023-04-03T19:28:08;15.10;;;13.87;;
1054;SDS011;516;51.482;7.120;2023-04-03T19:33:55;13.20;;;11.90;;
1054;SDS011;516;51.482;7.120;2023-04-03T19:39:44;13.27;;;12.47;;
1054;SDS011;516;51.482;7.120;2023-04-03T19:45:31;14.27;;;13.47;;
1054;SDS011;516;51.482;7.120;2023-04-03T19:51:20;14.17;;;13.07;;
1054;SDS011;516;51.482;7.120;2023-04-03T19:57:07;14.07;;;13.13;;
1054;SDS011;516;51.482;7.120;2023-04-03T20:02:55;13.00;;;12.23;;
1054;SDS011;516;51.482;7.120;2023-04-03T20:18:36;14.10;;;12.97;;
1054;SDS011;516;51.482;7.120;2023-04-03T20:24:24;13.47;;;12.37;;
1054;SDS011;516;51.482;7.120;2023-04-03T20:30:14;13.27;;;12.57;;
1054;SDS011;516;51.482;7.120;2023-04-03T20:36:02;14.00;;;12.97;;
1054;SDS011;516;51.482;7.120;2023-04-03T20:41:50;13.40;;;12.60;;
1054;SDS011;516;51.482;7.120;2023-04-03T20:47:38;13.70;;;12.60;;
1054;SDS011;516;51.482;7.120;2023-04-03T20:53:26;14.63;;;13.10;;
1054;SDS011;516;51.482;7.120;2023-04-03T20:59:14;13.37;;;12.37;;
1054;SDS011;516;51.482;7.120;2023-04-03T21:05:03;13.60;;;12.67;;
1054;SDS011;516;51.482;7.120;2023-04-03T21:23:16;15.67;;;13.70;;
1054;SDS011;516;51.482;7.120;2023-04-03T21:29:05;14.27;;;13.30;;
1054;SDS011;516;51.482;7.120;2023-04-03T21:34:56;14.50;;;13.67;;
1054;SDS011;516;51.482;7.120;2023-04-03T21:40:44;13.80;;;12.80;;
1054;SDS011;516;51.482;7.120;2023-04-03T21:46:32;14.80;;;14.00;;
1054;SDS011;516;51.482;7.120;2023-04-03T21:52:20;15.27;;;14.13;;
1054;SDS011;516;51.482;7.120;2023-04-03T21:58:08;14.57;;;13.73;;
1054;SDS011;516;51.482;7.120;2023-04-03T22:03:56;14.90;;;13.80;;
1054;SDS011;516;51.482;7.120;2023-04-03T22:13:07;13.80;;;12.80;;
1054;SDS011;516;51.482;7.120;2023-04-03T22:18:54;13.70;;;12.70;;
1054;SDS011;516;51.482;7.120;2023-04-03T22:24:45;15.83;;;14.20;;
1054;SDS011;516;51.482;7.120;2023-04-03T22:30:32;14.53;;;13.23;;
1054;SDS011;516;51.482;7.120;2023-04-03T22:36:20;13.60;;;12.70;;
1054;SDS011;516;51.482;7.120;2023-04-03T22:42:08;13.30;;;12.30;;
1054;SDS011;516;51.482;7.120;2023-04-03T22:47:55;12.00;;;11.00;;
1054;SDS011;516;51.482;7.120;2023-04-03T22:53:44;13.40;;;12.33;;
1054;SDS011;516;51.482;7.120;2023-04-03T22:59:32;14.00;;;13.00;;
1054;SDS011;516;51.482;7.120;2023-04-03T23:05:20;14.23;;;13.13;;
1054;SDS011;516;51.482;7.120;2023-04-03T23:11:18;13.13;;;12.13;;
1054;SDS011;516;51.482;7.120;2023-04-03T23:17:05;16.50;;;14.80;;
1054;SDS011;516;51.482;7.120;2023-04-03T23:22:53;19.83;;;17.80;;
1054;SDS011;516;51.482;7.120;2023-04-03T23:28:40;17.93;;;16.30;;
1054;SDS011;516;51.482;7.120;2023-04-03T23:34:27;19.90;;;15.93;;
1054;SDS011;516;51.482;7.120;2023-04-03T23:39:55;18.70;;;16.80;;
1054;SDS011;516;51.482;7.120;2023-04-03T23:45:45;20.80;;;16.50;;
1054;SDS011;516;51.482;7.120;2023-04-03T23:51:33;23.90;;;20.03;;
1054;SDS011;516;51.482;7.120;2023-04-03T23:57:21;22.77;;;16.93;;
